Time;durP1;ratioP1;P1;durP2;ratioP2;P2;SDS_P1;SDS_P2;PMS_P1;PMS_P2;Temp;Humidity;BMP_temperature;BMP_pressure;BME280_temperature;BME280_humidity;BME280_pressure;Samples;Min_cycle;Max_cycle;Signal;HPM_P1;HPM_P2
2022/02/21 00:01:09;;;;;;;25.00;9.80;;;;;;;2.93;61.97;99001.67;25103;1315;3026657;-69
2022/02/21 00:03:38;;;;;;;20.90;8.90;;;;;;;2.93;61.93;98996.27;25161;1313;3054338;-70
2022/02/21 00:06:08;;;;;;;24.00;8.00;;;;;;;3.00;61.46;99000.02;25128;1315;3026560;-65
2022/02/21 00:08:37;;;;;;;20.70;9.20;;;;;;;2.95;61.36;98997.27;25084;1315;3026413;-66
2022/02/21 00:11:06;;;;;;;17.70;7.80;;;;;;;2.92;61.64;99001.86;25112;1315;3054657;-66
2022/02/21 00:13:35;;;;;;;19.80;9.40;;;;;;;2.88;61.71;98998.56;25107;1315;3026793;-67
2022/02/21 00:16:04;;;;;;;25.40;9.00;;;;;;;2.81;61.93;98994.67;25169;1315;3026404;-63
2022/02/21 00:18:34;;;;;;;24.80;9.00;;;;;;;2.86;62.00;98990.16;25150;1315;3055383;-71
2022/02/21 00:21:03;;;;;;;21.30;9.00;;;;;;;2.86;61.64;98985.30;25101;1315;3027299;-65
2022/02/21 00:23:32;;;;;;;17.90;7.90;;;;;;;2.77;62.10;98978.54;25112;1315;3049078;-68
2022/02/21 00:26:01;;;;;;;24.20;9.10;;;;;;;2.83;61.43;98977.63;25108;1315;3026604;-69
2022/02/21 00:28:30;;;;;;;30.90;10.00;;;;;;;2.74;61.68;98980.02;25083;1315;3070558;-72
2022/02/21 00:30:59;;;;;;;26.60;9.60;;;;;;;2.65;62.04;98979.67;25148;1315;3026416;-68
2022/02/21 00:33:29;;;;;;;35.60;11.90;;;;;;;2.72;61.92;98973.52;25154;1315;3051947;-71
2022/02/21 00:35:58;;;;;;;32.30;11.50;;;;;;;2.72;62.02;98965.93;25126;1314;3027156;-72
2022/02/21 00:38:27;;;;;;;27.30;9.00;;;;;;;2.67;62.28;98968.17;25148;1315;3054462;-70
2022/02/21 00:40:56;;;;;;;35.40;11.40;;;;;;;2.71;62.26;98968.21;25132;1315;3026334;-69
2022/02/21 00:43:26;;;;;;;42.20;11.90;;;;;;;2.65;62.24;98965.85;25121;1315;3049497;-70
2022/02/21 00:45:55;;;;;;;31.10;11.30;;;;;;;2.54;62.73;98964.34;25143;1315;3027258;-64
2022/02/21 00:48:24;;;;;;;31.00;11.10;;;;;;;2.64;62.43;98963.98;25141;1315;3026890;-68
2022/02/21 00:50:53;;;;;;;27.80;9.70;;;;;;;2.53;63.02;98969.38;25108;1315;3048674;-66
2022/02/21 00:53:23;;;;;;;34.20;11.70;;;;;;;2.59;62.90;98969.67;25122;1315;3026833;-67
2022/02/21 00:55:51;;;;;;;32.00;10.50;;;;;;;2.46;63.08;98972.73;25131;1315;3026501;-65
2022/02/21 00:58:21;;;;;;;36.60;12.40;;;;;;;2.34;63.76;98970.54;25100;1315;3048745;-67
2022/02/21 01:00:49;;;;;;;29.90;11.40;;;;;;;2.29;64.05;98970.02;25128;1315;3027857;-62
2022/02/21 01:03:21;;;;;;;29.10;9.20;;;;;;;2.32;64.01;98965.77;25090;1315;3056091;-68
2022/02/21 01:05:50;;;;;;;22.60;10.00;;;;;;;2.33;63.96;98963.32;25133;1315;3029546;-71
2022/02/21 01:08:19;;;;;;;22.90;9.60;;;;;;;2.28;64.40;98966.27;25107;1315;3054134;-67
2022/02/21 01:10:48;;;;;;;35.00;10.80;;;;;;;2.22;64.83;98961.14;25131;1315;3027025;-68
2022/02/21 01:13:17;;;;;;;26.50;10.60;;;;;;;2.35;64.19;98957.70;25085;1315;3053914;-72
2022/02/21 01:15:47;;;;;;;25.30;10.00;;;;;;;2.30;64.59;98960.70;25112;1315;3026434;-65
2022/02/21 01:18:16;;;;;;;22.30;9.90;;;;;;;2.24;64.81;98954.66;25137;1313;3026146;-67
2022/02/21 01:20:46;;;;;;;25.00;9.90;;;;;;;2.27;64.49;98956.27;25134;1315;3052480;-65
2022/02/21 01:23:21;;;;;;;21.40;9.00;;;;;;;2.16;65.20;98954.06;25119;1315;3053684;-66
2022/02/21 01:25:50;;;;;;;19.90;8.10;;;;;;;2.22;64.71;98947.80;25128;1315;3027270;-69
2022/02/21 01:28:19;;;;;;;22.60;9.20;;;;;;;2.20;64.80;98945.83;25130;1314;3051723;-71
2022/02/21 01:30:47;;;;;;;15.10;8.30;;;;;;;2.17;64.88;98941.43;25134;1315;3026584;-62
2022/02/21 01:33:17;;;;;;;26.30;9.60;;;;;;;2.14;64.87;98940.66;25144;1315;3048084;-69
2022/02/21 01:35:46;;;;;;;19.50;9.30;;;;;;;2.12;64.79;98935.90;25146;1315;3028505;-68
2022/02/21 01:38:15;;;;;;;17.70;9.70;;;;;;;2.02;65.20;98931.58;25095;1315;3028965;-62
2022/02/21 01:40:44;;;;;;;19.60;7.90;;;;;;;2.12;64.65;98936.23;25157;1315;3051253;-66
2022/02/21 01:43:13;;;;;;;26.50;9.80;;;;;;;2.15;64.68;98934.23;25149;1313;3026785;-69
2022/02/21 01:45:42;;;;;;;22.70;8.80;;;;;;;2.11;64.61;98933.52;25144;1315;3071017;-73
2022/02/21 01:48:11;;;;;;;20.20;8.90;;;;;;;2.15;64.56;98928.19;25126;1315;3026634;-65
2022/02/21 01:50:40;;;;;;;25.20;8.50;;;;;;;2.08;64.64;98928.77;25154;1315;3026924;-70
2022/02/21 01:53:10;;;;;;;29.10;10.40;;;;;;;2.13;64.29;98930.15;25047;1316;3068367;-67
2022/02/21 01:55:39;;;;;;;26.90;9.90;;;;;;;2.13;64.67;98933.44;25162;1315;3026998;-66
2022/02/21 01:58:08;;;;;;;26.40;9.10;;;;;;;2.13;64.45;98937.58;25165;1315;3029912;-70
2022/02/21 02:00:37;;;;;;;25.50;9.10;;;;;;;2.14;64.40;98935.30;25069;1315;3071008;-70
2022/02/21 02:03:08;;;;;;;22.00;9.00;;;;;;;2.15;64.29;98936.15;25186;1314;3026964;-69
2022/02/21 02:05:37;;;;;;;24.60;10.20;;;;;;;2.17;64.32;98933.29;25180;1315;3028202;-65
2022/02/21 02:08:06;;;;;;;28.20;10.30;;;;;;;2.14;64.28;98934.98;25115;1314;3070719;-69
2022/02/21 02:10:35;;;;;;;29.50;12.30;;;;;;;2.17;64.16;98935.90;25115;1315;3026300;-65
2022/02/21 02:13:04;;;;;;;26.50;10.30;;;;;;;2.05;64.76;98936.33;25091;1315;3050472;-71
2022/02/21 02:15:33;;;;;;;26.80;10.80;;;;;;;1.97;65.00;98933.96;25100;1315;3026605;-71
2022/02/21 02:18:02;;;;;;;26.90;10.60;;;;;;;2.02;64.98;98937.95;25145;1315;3054722;-67
2022/02/21 02:20:32;;;;;;;35.00;12.10;;;;;;;1.99;64.87;98937.35;25141;1314;3028264;-67
2022/02/21 02:23:02;;;;;;;45.10;16.00;;;;;;;1.92;65.32;98935.02;25124;1315;3027045;-64
2022/02/21 02:25:31;;;;;;;35.60;11.60;;;;;;;1.86;65.65;98934.52;25095;1314;3055416;-66
2022/02/21 02:28:01;;;;;;;36.20;12.40;;;;;;;1.94;65.04;98936.31;25099;1315;3027595;-65
2022/02/21 02:30:30;;;;;;;39.70;13.00;;;;;;;1.77;65.76;98939.13;25143;1314;3027143;-72
2022/02/21 02:32:59;;;;;;;40.10;12.50;;;;;;;1.86;65.50;98937.98;25087;1314;3055231;-70
2022/02/21 02:35:30;;;;;;;43.00;13.40;;;;;;;1.79;65.52;98938.91;25188;1315;3028686;-65
2022/02/21 02:37:59;;;;;;;39.30;11.10;;;;;;;1.76;65.69;98937.77;25099;1314;3047474;-70
2022/02/21 02:40:28;;;;;;;63.30;15.40;;;;;;;1.79;65.46;98935.79;25123;1315;3026298;-65
2022/02/21 02:42:57;;;;;;;46.80;14.80;;;;;;;1.74;65.93;98936.98;25093;1315;3058724;-68
2022/02/21 02:45:26;;;;;;;48.10;13.00;;;;;;;1.64;66.10;98936.27;25149;1315;3028091;-69
2022/02/21 02:47:55;;;;;;;46.70;15.70;;;;;;;1.69;65.85;98928.16;25115;1315;3051263;-74
2022/02/21 02:50:24;;;;;;;47.80;14.60;;;;;;;1.64;65.74;98928.51;25148;1313;3028090;-70
2022/02/21 02:52:53;;;;;;;32.30;11.10;;;;;;;1.65;65.86;98927.25;25107;1313;3026711;-70
2022/02/21 02:55:22;;;;;;;32.00;10.50;;;;;;;1.72;65.33;98933.79;25052;1313;3054088;-67
2022/02/21 02:57:50;;;;;;;56.20;16.30;;;;;;;1.78;64.89;98932.70;25114;1315;3026561;-68
2022/02/21 03:00:20;;;;;;;44.20;15.20;;;;;;;1.73;65.31;98937.20;25138;1315;3052346;-65
2022/02/21 03:02:48;;;;;;;49.40;15.50;;;;;;;1.76;65.13;98937.10;25111;1315;3026214;-72
2022/02/21 03:05:18;;;;;;;41.60;13.60;;;;;;;1.67;65.31;98935.65;25135;1313;3049024;-66
2022/02/21 03:07:47;;;;;;;34.60;13.30;;;;;;;1.79;64.90;98934.23;25084;1317;3026961;-68
2022/02/21 03:10:16;;;;;;;30.90;12.20;;;;;;;1.71;65.07;98924.84;25139;1315;3026961;-66
2022/02/21 03:12:56;;;;;;;32.20;12.30;;;;;;;1.70;65.18;98923.31;25179;1313;3051954;-67
2022/02/21 03:15:25;;;;;;;37.50;12.20;;;;;;;1.67;64.76;98923.41;25201;1315;3029849;-65
2022/02/21 03:17:54;;;;;;;30.50;11.80;;;;;;;1.67;65.05;98922.73;25235;1313;3068664;-70
2022/02/21 03:20:23;;;;;;;21.50;10.10;;;;;;;1.78;64.75;98926.48;25125;1313;3026789;-67
2022/02/21 03:22:52;;;;;;;26.00;12.50;;;;;;;1.73;64.74;98922.34;25105;1315;3049817;-65
2022/02/21 03:25:21;;;;;;;29.80;11.60;;;;;;;1.59;65.35;98921.77;25102;1314;3027063;-69
2022/02/21 03:27:50;;;;;;;34.20;11.50;;;;;;;1.61;65.22;98916.67;25185;1313;3052858;-69
2022/02/21 03:30:19;;;;;;;31.10;12.60;;;;;;;1.58;65.49;98918.36;25148;1315;3027683;-66
2022/02/21 03:32:48;;;;;;;39.70;13.80;;;;;;;1.71;64.99;98917.23;25164;1315;3049202;-66
2022/02/21 03:35:17;;;;;;;32.90;15.10;;;;;;;1.67;64.94;98917.02;25106;1315;3026698;-67
2022/02/21 03:37:46;;;;;;;40.70;14.50;;;;;;;1.74;64.60;98913.17;25169;1314;3055575;-69
2022/02/21 03:40:14;;;;;;;33.40;12.30;;;;;;;1.75;64.64;98910.70;25131;1315;3031669;-69
2022/02/21 03:42:43;;;;;;;31.60;11.80;;;;;;;1.89;64.34;98915.45;25158;1315;3052782;-64
2022/02/21 03:45:12;;;;;;;34.00;13.50;;;;;;;1.83;64.82;98923.05;25146;1315;3028416;-66
2022/02/21 03:47:41;;;;;;;36.40;14.40;;;;;;;1.86;64.36;98920.73;25176;1315;3050517;-66
2022/02/21 03:50:11;;;;;;;38.50;14.00;;;;;;;1.73;65.14;98917.69;25168;1315;3026851;-69
2022/02/21 03:52:40;;;;;;;35.90;11.20;;;;;;;1.69;64.98;98913.68;25303;1315;3048902;-69
2022/02/21 03:55:09;;;;;;;31.00;12.20;;;;;;;1.89;64.37;98912.67;25290;1315;3026582;-73
2022/02/21 03:57:39;;;;;;;32.10;11.80;;;;;;;1.86;64.38;98915.00;25273;1313;3069037;-70
2022/02/21 04:00:12;;;;;;;31.20;12.20;;;;;;;1.90;64.44;98916.94;25174;1315;3026927;-70
2022/02/21 04:02:42;;;;;;;29.70;12.70;;;;;;;1.93;64.25;98914.79;25176;1313;3050495;-67
2022/02/21 04:05:14;;;;;;;25.70;11.20;;;;;;;1.90;64.38;98928.02;25163;1313;3026797;-67
2022/02/21 04:07:44;;;;;;;34.80;12.30;;;;;;;2.02;64.12;98925.70;25137;1313;3052736;-66
2022/02/21 04:10:13;;;;;;;31.30;13.00;;;;;;;1.86;64.81;98927.96;25110;1313;3026553;-67
2022/02/21 04:12:44;;;;;;;41.40;14.90;;;;;;;1.86;64.92;98926.58;25140;1315;3028578;-70
2022/02/21 04:15:13;;;;;;;32.10;12.60;;;;;;;1.94;64.65;98915.28;25135;1316;3027188;-68
2022/02/21 04:17:49;;;;;;;36.30;13.20;;;;;;;1.99;64.59;98916.81;25159;1315;3026860;-69
2022/02/21 04:20:21;;;;;;;36.00;13.30;;;;;;;1.86;65.06;98915.35;25166;1315;3070765;-67
2022/02/21 04:22:50;;;;;;;46.10;13.30;;;;;;;2.01;64.79;98914.65;25146;1313;3026772;-69
2022/02/21 04:25:19;;;;;;;37.30;12.80;;;;;;;1.99;64.77;98918.03;25167;1315;3029500;-68
2022/02/21 04:27:50;;;;;;;32.20;12.40;;;;;;;1.95;64.97;98922.64;25122;1315;3027593;-68
2022/02/21 04:30:20;;;;;;;32.80;11.60;;;;;;;1.91;65.12;98923.80;25148;1313;3047913;-64
2022/02/21 04:32:49;;;;;;;39.50;12.90;;;;;;;1.89;65.52;98924.27;25109;1313;3026480;-68
2022/02/21 04:35:19;;;;;;;42.40;15.20;;;;;;;1.90;65.39;98921.94;25145;1313;3029023;-69
2022/02/21 04:37:48;;;;;;;43.70;15.50;;;;;;;1.96;65.21;98921.25;25151;1315;3048696;-68
2022/02/21 04:40:19;;;;;;;34.00;13.10;;;;;;;2.07;65.11;98923.27;25119;1315;3026547;-65
2022/02/21 04:42:48;;;;;;;39.50;13.60;;;;;;;2.03;65.19;98921.36;25134;1315;3068510;-69
2022/02/21 04:45:17;;;;;;;36.40;12.80;;;;;;;2.04;65.29;98921.46;25108;1313;3027463;-68
2022/02/21 04:47:47;;;;;;;38.30;13.30;;;;;;;2.03;65.76;98921.84;25158;1315;3029374;-72
2022/02/21 04:50:16;;;;;;;33.70;13.30;;;;;;;2.11;65.22;98926.77;25145;1313;3071843;-67
2022/02/21 04:52:52;;;;;;;39.80;14.30;;;;;;;2.12;65.68;98925.70;25140;1313;3051696;-68
2022/02/21 04:55:22;;;;;;;42.80;15.50;;;;;;;2.10;65.62;98925.27;25129;1315;3026871;-66
2022/02/21 04:57:50;;;;;;;37.50;14.70;;;;;;;2.06;65.70;98926.93;25147;1313;3026888;-72
2022/02/21 05:00:20;;;;;;;40.20;15.10;;;;;;;1.99;66.07;98933.76;25122;1314;3051626;-73
2022/02/21 05:02:49;;;;;;;38.90;13.20;;;;;;;2.08;66.05;98938.29;25131;1313;3026576;-71
2022/02/21 05:05:18;;;;;;;48.80;14.70;;;;;;;2.16;65.35;98937.14;25109;1313;3067559;-70
2022/02/21 05:07:47;;;;;;;37.30;14.30;;;;;;;2.09;66.01;98938.05;25107;1313;3026194;-72
2022/02/21 05:10:17;;;;;;;37.90;14.10;;;;;;;2.13;65.97;98933.77;25098;1313;3027459;-66
2022/02/21 05:12:47;;;;;;;47.70;15.70;;;;;;;2.16;65.83;98932.11;25100;1315;3027165;-65
2022/02/21 05:15:16;;;;;;;30.40;13.60;;;;;;;1.94;66.66;98933.73;25151;1315;3026548;-68
2022/02/21 05:17:45;;;;;;;39.40;13.60;;;;;;;2.04;66.46;98931.52;25121;1313;3053761;-69
2022/02/21 05:20:14;;;;;;;32.70;11.40;;;;;;;2.04;66.57;98926.66;25192;1313;3027681;-68
2022/02/21 05:22:43;;;;;;;34.80;13.90;;;;;;;2.03;66.60;98922.37;25117;1315;3051582;-69
2022/02/21 05:25:12;;;;;;;34.20;13.80;;;;;;;1.91;67.33;98919.86;25117;1315;3028869;-70
2022/02/21 05:27:41;;;;;;;43.40;15.10;;;;;;;1.91;67.43;98917.27;25092;1313;3066664;-69
2022/02/21 05:30:10;;;;;;;37.90;15.60;;;;;;;1.96;67.08;98915.86;25127;1315;3026598;-71
2022/02/21 05:32:40;;;;;;;43.00;16.30;;;;;;;1.78;67.77;98921.32;25097;1315;3050657;-66
2022/02/21 05:35:09;;;;;;;35.20;14.40;;;;;;;1.97;67.11;98921.55;25110;1313;3026966;-71
2022/02/21 05:37:38;;;;;;;42.20;14.50;;;;;;;1.90;67.60;98917.98;25140;1313;3027129;-70
2022/02/21 05:40:08;;;;;;;40.10;14.90;;;;;;;1.87;67.71;98920.84;25140;1313;3027012;-70
2022/02/21 05:42:37;;;;;;;34.90;14.90;;;;;;;1.92;67.46;98920.48;25145;1313;3068629;-67
2022/02/21 05:45:07;;;;;;;42.70;14.40;;;;;;;1.83;67.71;98917.16;25137;1313;3027337;-67
2022/02/21 05:47:36;;;;;;;32.10;14.00;;;;;;;1.82;67.81;98922.05;25156;1315;3049754;-68
2022/02/21 05:50:05;;;;;;;40.50;15.90;;;;;;;1.90;67.77;98924.00;25090;1313;3027124;-72
2022/02/21 05:52:41;;;;;;;52.70;17.60;;;;;;;1.79;68.01;98923.00;25089;1315;3053367;-69
2022/02/21 05:55:10;;;;;;;46.90;16.20;;;;;;;1.72;68.23;98924.27;25180;1313;3028219;-70
2022/02/21 05:57:40;;;;;;;38.80;16.30;;;;;;;1.77;68.62;98924.65;25095;1313;3051754;-73
2022/02/21 06:00:15;;;;;;;36.20;15.70;;;;;;;1.83;68.37;98923.75;25099;1315;3054921;-68
2022/02/21 06:02:47;;;;;;;37.90;16.60;;;;;;;1.91;67.93;98926.75;25110;1315;3026311;-68
2022/02/21 06:05:16;;;;;;;31.00;14.00;;;;;;;2.02;67.81;98927.59;25131;1313;3026561;-70
2022/02/21 06:07:45;;;;;;;64.60;16.10;;;;;;;1.97;68.10;98930.20;25144;1313;3054812;-67
2022/02/21 06:10:14;;;;;;;31.80;15.40;;;;;;;1.96;68.47;98934.50;25133;1313;3027898;-70
2022/02/21 06:12:48;;;;;;;33.90;15.20;;;;;;;2.09;67.99;98935.27;25108;1315;3052139;-73
2022/02/21 06:15:17;;;;;;;47.10;15.50;;;;;;;2.06;67.82;98935.77;25152;1315;3027173;-69
2022/02/21 06:17:46;;;;;;;43.20;15.40;;;;;;;2.07;67.70;98937.63;25119;1313;3029437;-71
2022/02/21 06:20:15;;;;;;;41.10;15.70;;;;;;;2.05;68.06;98931.45;25094;1313;3053953;-70
2022/02/21 06:22:44;;;;;;;38.90;15.70;;;;;;;2.12;67.95;98931.90;25128;1313;3026389;-68
2022/02/21 06:25:13;;;;;;;38.60;14.70;;;;;;;2.26;67.26;98925.03;25110;1313;3058766;-67
2022/02/21 06:27:42;;;;;;;36.40;15.50;;;;;;;2.34;67.20;98921.46;25158;1313;3028541;-69
2022/02/21 06:30:12;;;;;;;44.40;18.70;;;;;;;2.52;66.84;98921.02;25128;1313;3053528;-68
2022/02/21 06:32:41;;;;;;;50.80;18.20;;;;;;;2.42;67.01;98928.28;25114;1313;3026421;-69
2022/02/21 06:35:14;;;;;;;45.30;17.80;;;;;;;2.44;66.95;98929.23;25162;1313;3028995;-65
2022/02/21 06:37:44;;;;;;;42.20;15.30;;;;;;;2.50;67.11;98937.50;25127;1315;3050867;-68
2022/02/21 06:40:13;;;;;;;44.60;17.00;;;;;;;2.56;67.21;98931.60;25153;1313;3026728;-68
2022/02/21 06:42:42;;;;;;;38.20;16.60;;;;;;;2.52;67.00;98932.91;25151;1313;3026809;-68
2022/02/21 06:45:11;;;;;;;50.30;18.60;;;;;;;2.61;66.98;98926.55;25138;1313;3028456;-72
2022/02/21 06:47:41;;;;;;;50.30;21.10;;;;;;;2.81;66.80;98924.96;25160;1313;3058811;-72
2022/02/21 06:50:10;;;;;;;43.80;17.90;;;;;;;2.94;65.91;98922.23;25152;1313;3028307;-68
2022/02/21 06:52:39;;;;;;;52.70;20.20;;;;;;;3.05;65.84;98918.67;25125;1315;3026662;-72
2022/02/21 06:55:10;;;;;;;39.60;16.30;;;;;;;3.07;65.42;98922.56;25138;1313;3058079;-64
2022/02/21 06:57:41;;;;;;;36.50;14.60;;;;;;;3.17;64.95;98921.13;25105;1313;3026264;-69
2022/02/21 07:00:10;;;;;;;39.30;14.30;;;;;;;3.27;64.40;98930.98;25172;1313;3026774;-71
2022/02/21 07:02:40;;;;;;;39.30;13.50;;;;;;;3.19;64.56;98931.64;25163;1315;3028604;-68
2022/02/21 07:05:09;;;;;;;33.40;14.60;;;;;;;3.44;64.23;98938.44;25117;1313;3026744;-69
2022/02/21 07:07:39;;;;;;;37.70;14.70;;;;;;;3.41;64.03;98941.16;25091;1314;3054741;-68
2022/02/21 07:10:08;;;;;;;37.90;14.50;;;;;;;3.45;64.11;98946.89;25142;1314;3028514;-71
2022/02/21 07:12:37;;;;;;;36.50;15.70;;;;;;;3.54;64.14;98945.65;25136;1313;3049425;-73
2022/02/21 07:15:07;;;;;;;41.20;15.50;;;;;;;3.75;63.33;98938.60;25143;1315;3029401;-69
2022/02/21 07:17:40;;;;;;;37.60;13.70;;;;;;;3.78;63.12;98940.52;25116;1315;3058235;-66
2022/02/21 07:20:15;;;;;;;32.10;14.70;;;;;;;3.76;63.14;98940.63;25082;1315;3026750;-67
2022/02/21 07:22:45;;;;;;;34.60;13.90;;;;;;;3.91;63.04;98943.83;25165;1313;3052972;-70
2022/02/21 07:25:15;;;;;;;40.70;15.30;;;;;;;4.04;62.46;98952.15;25162;1313;3026564;-69
2022/02/21 07:27:48;;;;;;;51.00;17.80;;;;;;;3.98;62.79;98943.55;25142;1313;3026559;-70
2022/02/21 07:30:18;;;;;;;26.50;10.70;;;;;;;4.00;62.96;98939.63;25178;1313;3029633;-70
2022/02/21 07:32:49;;;;;;;38.50;15.50;;;;;;;4.20;62.19;98939.98;25172;1313;3027903;-72
2022/02/21 07:35:19;;;;;;;38.90;15.50;;;;;;;4.02;62.84;98938.18;25175;1315;3026893;-72
2022/02/21 07:37:48;;;;;;;34.00;15.30;;;;;;;3.95;63.49;98944.36;25158;1313;3051559;-67
2022/02/21 07:40:16;;;;;;;33.10;14.40;;;;;;;3.95;63.47;98943.15;25123;1312;3026571;-71
2022/02/21 07:42:52;;;;;;;37.40;15.50;;;;;;;4.14;63.24;98939.73;25135;1314;3070930;-68
2022/02/21 07:45:23;;;;;;;29.50;14.20;;;;;;;4.12;63.47;98933.41;25136;1315;3048270;-76
2022/02/21 07:47:55;;;;;;;31.20;14.30;;;;;;;4.29;62.82;98933.91;24804;1313;3544060;-64
2022/02/21 07:50:29;;;;;;;37.80;14.50;;;;;;;4.16;63.32;98929.77;25147;1315;3053573;-68
2022/02/21 07:52:58;;;;;;;42.70;15.30;;;;;;;4.21;63.34;98924.34;25051;1315;3026236;-72
2022/02/21 07:55:27;;;;;;;40.40;13.70;;;;;;;4.19;63.18;98927.90;25056;1315;3028024;-72
2022/02/21 07:57:59;;;;;;;32.30;15.20;;;;;;;4.03;63.51;98924.43;25096;1314;3027168;-70
2022/02/21 08:00:28;;;;;;;37.30;13.60;;;;;;;4.21;63.22;98921.75;25053;1315;3058847;-63
2022/02/21 08:02:58;;;;;;;30.30;12.40;;;;;;;4.43;62.75;98926.73;25018;1315;3026640;-69
2022/02/21 08:05:40;;;;;;;32.40;14.90;;;;;;;4.44;62.76;98927.38;25223;1315;3055662;-71
2022/02/21 08:08:09;;;;;;;29.50;11.50;;;;;;;4.76;62.11;98917.61;25203;1313;3026319;-63
2022/02/21 08:10:38;;;;;;;30.60;12.80;;;;;;;4.84;61.82;98915.86;25101;1313;3052054;-68
2022/02/21 08:13:07;;;;;;;32.50;14.60;;;;;;;5.05;61.31;98915.94;25132;1315;3026350;-70
2022/02/21 08:15:36;;;;;;;36.30;15.20;;;;;;;5.11;61.39;98908.70;25205;1313;3058494;-69
2022/02/21 08:18:05;;;;;;;31.60;14.50;;;;;;;5.01;61.61;98913.52;25108;1315;3026461;-67
2022/02/21 08:20:34;;;;;;;34.80;14.40;;;;;;;5.18;61.17;98916.70;25158;1313;3051004;-67
2022/02/21 08:23:03;;;;;;;30.00;11.90;;;;;;;5.20;61.10;98925.48;25438;1313;3026461;-67
2022/02/21 08:26:30;;;;;;;25.50;12.50;;;;;;;5.26;61.00;98919.10;18733;1313;3052265;-70
2022/02/21 08:29:26;;;;;;;30.80;12.70;;;;;;;5.36;60.94;98914.98;23374;1315;3078042;-68
2022/02/21 08:31:55;;;;;;;26.60;12.40;;;;;;;5.61;60.44;98911.55;25188;1313;3026483;-66
2022/02/21 08:34:24;;;;;;;22.90;11.50;;;;;;;5.72;60.38;98916.02;25231;1313;3055665;-64
2022/02/21 08:36:54;;;;;;;28.00;12.30;;;;;;;5.98;59.45;98910.94;25116;1315;3026180;-68
2022/02/21 08:39:22;;;;;;;31.00;11.70;;;;;;;5.95;59.45;98914.22;25139;1315;3025923;-72
2022/02/21 08:41:51;;;;;;;27.20;13.50;;;;;;;5.83;59.99;98915.50;25097;1313;3052013;-66
2022/02/21 08:44:20;;;;;;;29.90;11.70;;;;;;;5.72;60.32;98913.41;25133;1315;3026349;-70
2022/02/21 08:46:50;;;;;;;23.70;10.20;;;;;;;5.95;59.65;98914.92;25149;1313;3052079;-70
2022/02/21 08:49:18;;;;;;;24.50;10.80;;;;;;;6.01;59.48;98911.82;25129;1313;3029314;-68
2022/02/21 08:51:47;;;;;;;29.80;12.80;;;;;;;5.77;60.15;98909.71;25121;1313;3067715;-70
2022/02/21 08:54:19;;;;;;;25.20;11.60;;;;;;;5.77;60.52;98911.95;25116;1315;3026482;-69
2022/02/21 08:56:48;;;;;;;26.10;12.00;;;;;;;5.89;60.38;98919.54;25173;1313;3050938;-66
2022/02/21 08:59:18;;;;;;;30.20;12.60;;;;;;;6.14;59.90;98915.86;25064;1313;3027151;-66
2022/02/21 09:01:47;;;;;;;26.60;11.30;;;;;;;6.38;59.20;98914.30;25112;1313;3051994;-66
2022/02/21 09:04:16;;;;;;;27.60;11.50;;;;;;;6.48;58.69;98914.13;20050;1313;3036836;-69
2022/02/21 09:06:45;;;;;;;20.50;9.70;;;;;;;6.51;58.53;98905.80;25475;1313;3051644;-68
2022/02/21 09:09:14;;;;;;;30.90;11.50;;;;;;;6.67;58.26;98903.21;25226;1313;3027238;-69
2022/02/21 09:11:43;;;;;;;22.90;8.80;;;;;;;6.74;57.78;98901.26;25209;1315;3054650;-69
2022/02/21 09:14:12;;;;;;;23.20;9.50;;;;;;;6.92;57.28;98907.96;25183;1313;3026267;-67
2022/02/21 09:16:41;;;;;;;21.20;10.00;;;;;;;6.86;57.60;98905.34;25177;1315;3053518;-71
2022/02/21 09:19:10;;;;;;;29.80;10.70;;;;;;;6.87;57.81;98900.40;25134;1313;3026967;-69
2022/02/21 09:21:38;;;;;;;32.70;12.00;;;;;;;6.93;57.64;98901.33;25402;1313;3053711;-68
2022/02/21 09:25:02;;;;;;;33.20;11.40;;;;;;;7.04;57.77;98902.92;24093;1313;3035267;-75
2022/02/21 09:28:09;;;;;;;30.40;9.90;;;;;;;7.14;57.48;98897.17;22655;1313;3065536;-69
2022/02/21 09:30:39;;;;;;;34.20;11.10;;;;;;;7.15;56.74;98897.27;25203;1314;3029583;-70
2022/02/21 09:33:08;;;;;;;31.80;11.30;;;;;;;7.25;56.89;98889.09;25162;1315;3026435;-68
2022/02/21 09:35:37;;;;;;;25.30;10.40;;;;;;;7.34;56.70;98889.78;25142;1313;3048456;-67
2022/02/21 09:38:17;;;;;;;19.50;9.40;;;;;;;7.29;56.40;98888.66;25137;1313;3053751;-66
2022/02/21 09:40:50;;;;;;;22.30;9.40;;;;;;;7.38;56.11;98884.87;25137;1315;3027350;-66
2022/02/21 09:43:20;;;;;;;23.60;9.70;;;;;;;7.30;56.07;98884.95;25064;1314;3049088;-70
2022/02/21 09:45:49;;;;;;;27.00;10.90;;;;;;;7.24;56.65;98894.16;25119;1314;3028806;-65
2022/02/21 09:48:18;;;;;;;27.50;10.70;;;;;;;7.33;56.73;98883.77;25097;1315;3026924;-66
2022/02/21 09:50:47;;;;;;;32.10;11.60;;;;;;;7.52;56.58;98877.98;25051;1315;3050316;-65
2022/02/21 09:53:16;;;;;;;31.40;11.00;;;;;;;7.69;55.99;98874.73;25109;1315;3028573;-68
2022/02/21 09:55:45;;;;;;;20.50;8.30;;;;;;;7.77;54.97;98875.83;25094;1316;3068753;-66
2022/02/21 09:58:14;;;;;;;22.50;9.40;;;;;;;7.79;54.54;98877.66;25110;1314;3026566;-72
2022/02/21 10:00:42;;;;;;;17.00;8.80;;;;;;;7.84;54.47;98884.67;25128;1315;3051169;-64
2022/02/21 10:03:11;;;;;;;38.60;11.60;;;;;;;7.90;54.45;98876.13;25078;1315;3026326;-67
2022/02/21 10:05:44;;;;;;;22.00;8.80;;;;;;;7.91;53.82;98876.04;25122;1315;3054524;-65
2022/02/21 10:08:15;;;;;;;39.80;9.80;;;;;;;8.22;52.84;98874.77;25123;1315;3026519;-68
2022/02/21 10:10:44;;;;;;;21.30;8.30;;;;;;;8.22;52.47;98873.70;25130;1315;3026662;-69
2022/02/21 10:13:13;;;;;;;17.40;6.00;;;;;;;8.01;51.97;98890.50;25155;1315;3026482;-65
2022/02/21 10:15:42;;;;;;;24.60;6.90;;;;;;;7.88;52.15;98890.70;25145;1315;3050912;-72
2022/02/21 10:18:13;;;;;;;24.10;7.50;;;;;;;7.93;52.09;98879.79;25091;1315;3030045;-68
2022/02/21 10:20:59;;;;;;;25.30;7.50;;;;;;;7.89;52.55;98887.17;25152;1315;3027281;-68
2022/02/21 10:23:33;;;;;;;14.70;6.20;;;;;;;8.03;52.55;98872.60;25135;1313;3053013;-66
2022/02/21 10:26:06;;;;;;;21.30;7.60;;;;;;;8.09;52.00;98870.98;25071;1315;3052522;-69
2022/02/21 10:28:41;;;;;;;28.60;7.40;;;;;;;8.12;51.75;98876.20;25203;1315;3026875;-67
2022/02/21 10:31:15;;;;;;;26.70;8.00;;;;;;;8.40;51.64;98875.59;25069;1315;3049440;-67
2022/02/21 10:34:01;;;;;;;21.20;7.70;;;;;;;8.44;50.09;98867.19;25011;1318;3052603;-67
2022/02/21 10:36:31;;;;;;;27.80;8.20;;;;;;;8.40;50.23;98875.09;25163;1315;3052646;-65
2022/02/21 10:39:03;;;;;;;18.90;6.70;;;;;;;8.54;49.93;98864.45;25115;1314;3027392;-65
2022/02/21 10:41:41;;;;;;;28.70;7.80;;;;;;;8.70;49.64;98855.98;25141;1315;3026625;-66
2022/02/21 10:44:14;;;;;;;18.00;7.20;;;;;;;8.57;50.21;98861.70;25133;1316;3052594;-66
2022/02/21 10:47:21;;;;;;;26.30;7.40;;;;;;;8.55;50.21;98852.39;25121;1315;3029895;-63
2022/02/21 10:49:50;;;;;;;25.10;8.20;;;;;;;8.89;49.73;98843.48;25154;1315;3055015;-65
2022/02/21 10:52:25;;;;;;;22.00;7.70;;;;;;;9.04;48.83;98848.08;25137;1315;3026876;-68
2022/02/21 10:54:54;;;;;;;18.70;7.90;;;;;;;8.99;48.16;98850.47;25119;1315;3053402;-68
2022/02/21 10:57:25;;;;;;;19.10;6.90;;;;;;;8.92;48.11;98838.20;25138;1315;3028137;-68
2022/02/21 10:59:56;;;;;;;27.80;7.70;;;;;;;8.99;47.59;98836.53;25142;1315;3028044;-64
2022/02/21 11:02:25;;;;;;;27.30;7.60;;;;;;;9.18;47.42;98829.70;25137;1315;3027290;-69
2022/02/21 11:04:55;;;;;;;17.40;6.80;;;;;;;9.29;46.55;98828.14;25113;1315;3027516;-67
2022/02/21 11:07:24;;;;;;;29.40;9.40;;;;;;;9.32;47.29;98843.27;25031;1315;3029353;-63
2022/02/21 11:09:58;;;;;;;21.00;9.90;;;;;;;9.42;46.95;98853.52;25096;1315;3027573;-66
2022/02/21 11:12:29;;;;;;;26.10;9.40;;;;;;;9.27;46.73;98840.98;25114;1315;3027376;-62
2022/02/21 11:15:00;;;;;;;21.10;7.80;;;;;;;9.17;46.72;98839.04;25217;1313;3026663;-66
2022/02/21 11:17:48;;;;;;;23.50;7.70;;;;;;;9.42;46.36;98829.23;25274;1313;3059318;-72
2022/02/21 11:20:17;;;;;;;23.10;8.70;;;;;;;9.26;46.83;98829.87;25150;1315;3026258;-67
2022/02/21 11:22:46;;;;;;;25.80;10.20;;;;;;;9.37;46.85;98828.31;25146;1316;3051179;-73
2022/02/21 11:25:19;;;;;;;30.00;9.50;;;;;;;9.41;47.09;98829.08;25150;1313;3028070;-67
2022/02/21 11:28:08;;;;;;;26.30;9.80;;;;;;;9.51;46.98;98819.17;25195;1315;3029024;-66